Huntley, Minnesota
Current Conditions -  °F | °C
As of 4:15 PM on Friday 31 Oct 2014 (Local Time) from KFRM Reporting Station
Clear Clear  
Wind Chill: 34°   Ceiling: Unl
Heat Index: 39°   Visibility: 10mi
Dew Point: 14°   Wind: 8mph
Humidity: 36%   Direction: 20°NNE
Pressure: 30.48"   Gusts: NA
Location:  43.73°N, 94.24°W
Report Text: KFRM 312115Z AUTO 02007KT 10SM CLR 04/M10 A3048 RMK AO1
Loading
Personal Weather Stations






























Interactive Weather Map
Tropical Storm Tracking
New forecast layout! Learn more

10-Day Weather Forecast

Advertisements
Track Severe Weather on mobile